Time;durP1;ratioP1;P1;durP2;ratioP2;P2;SDS_P1;SDS_P2;PMS_P1;PMS_P2;Temp;Humidity;BMP_temperature;BMP_pressure;BME280_temperature;BME280_humidity;BME280_pressure;Samples;Min_cycle;Max_cycle;Signal;HPM_P1;HPM_P2
2024/01/20 00:01:17;;;;;;;;;21.25;18.25;;;;;1.13;67.69;102511.56;4995674;28;45580;-41
2024/01/20 00:03:42;;;;;;;;;22.75;17.50;;;;;1.36;67.99;102556.34;4996033;28;45454;-40
2024/01/20 00:06:07;;;;;;;;;25.25;19.00;;;;;1.42;67.96;102555.31;4994945;28;45394;-40
2024/01/20 00:08:33;;;;;;;;;23.25;17.50;;;;;1.45;67.61;102556.09;4995960;28;45407;-45
2024/01/20 00:10:58;;;;;;;;;17.75;16.25;;;;;1.41;67.22;102540.47;4995730;28;46454;-41
2024/01/20 00:13:23;;;;;;;;;23.75;21.00;;;;;1.41;67.54;102549.22;4995651;28;45413;-40
2024/01/20 00:15:49;;;;;;;;;30.25;21.75;;;;;1.37;68.08;102541.47;4996091;28;45410;-40
2024/01/20 00:18:14;;;;;;;;;24.75;16.50;;;;;1.40;68.13;102557.13;4996070;28;45314;-40
2024/01/20 00:20:40;;;;;;;;;19.75;9.25;;;;;1.35;67.85;102559.00;4995789;28;46098;-41
2024/01/20 00:23:05;;;;;;;;;28.00;19.00;;;;;1.31;68.44;102546.91;4995713;28;45370;-40
2024/01/20 00:25:32;;;;;;;;;19.50;15.25;;;;;1.37;67.43;102562.44;4995647;28;45428;-40
2024/01/20 00:27:57;;;;;;;;;25.00;22.50;;;;;1.24;67.92;102554.91;4996164;28;45347;-41
2024/01/20 00:30:22;;;;;;;;;21.50;19.00;;;;;1.27;67.36;102566.25;4995584;28;45324;-41
2024/01/20 00:32:47;;;;;;;;;25.50;22.00;;;;;1.19;68.22;102551.56;4995321;28;45297;-39
2024/01/20 00:35:13;;;;;;;;;32.00;22.50;;;;;1.21;68.35;102551.53;4995411;28;45334;-41
2024/01/20 00:37:38;;;;;;;;;36.50;23.75;;;;;1.27;67.95;102563.63;4995849;28;45326;-40
2024/01/20 00:40:05;;;;;;;;;32.50;22.00;;;;;1.28;68.17;102576.66;4995164;28;46300;-41
2024/01/20 00:42:31;;;;;;;;;23.50;18.50;;;;;1.32;68.37;102570.44;4995302;28;45452;-41
2024/01/20 00:44:56;;;;;;;;;25.50;18.00;;;;;1.35;67.50;102572.09;4995460;28;45269;-41
2024/01/20 00:47:21;;;;;;;;;22.50;22.50;;;;;1.29;68.42;102581.00;4995581;28;45301;-41
2024/01/20 00:49:47;;;;;;;;;31.00;20.00;;;;;1.31;68.23;102578.38;4995247;28;45334;-40
2024/01/20 00:52:13;;;;;;;;;34.00;21.75;;;;;1.34;68.05;102583.50;4995269;28;45426;-40
2024/01/20 00:54:39;;;;;;;;;23.25;20.00;;;;;1.37;68.15;102586.03;4994086;28;45494;-40
2024/01/20 00:57:04;;;;;;;;;23.50;15.75;;;;;1.34;68.01;102578.25;4994339;28;45379;-40
2024/01/20 00:59:30;;;;;;;;;35.25;25.25;;;;;1.37;68.27;102580.81;4995258;28;45412;-40
2024/01/20 01:01:55;;;;;;;;;26.75;18.50;;;;;1.31;67.58;102584.47;4995192;28;45342;-40
2024/01/20 01:04:20;;;;;;;;;23.50;18.50;;;;;1.27;68.48;102584.59;4994027;28;45403;-40
2024/01/20 01:06:45;;;;;;;;;33.25;24.75;;;;;1.21;68.69;102578.59;4995494;28;45330;-41
2024/01/20 01:09:11;;;;;;;;;30.00;21.50;;;;;1.21;68.70;102588.22;4994875;28;46276;-39
2024/01/20 01:11:36;;;;;;;;;22.00;18.00;;;;;1.15;68.54;102581.38;4993722;28;45639;-41
2024/01/20 01:14:02;;;;;;;;;22.25;19.00;;;;;1.17;68.71;102584.81;4995244;28;45377;-40
2024/01/20 01:16:27;;;;;;;;;30.25;19.50;;;;;1.24;68.41;102582.91;4995305;28;45344;-39
2024/01/20 01:18:52;;;;;;;;;19.25;13.50;;;;;1.29;68.12;102586.25;4994979;27;45505;-40
2024/01/20 01:21:18;;;;;;;;;27.75;23.00;;;;;1.28;68.52;102586.31;4995176;28;45418;-40
2024/01/20 01:23:43;;;;;;;;;21.50;20.25;;;;;1.27;68.24;102576.72;4994970;28;45468;-41
2024/01/20 01:26:08;;;;;;;;;31.50;19.00;;;;;1.26;68.24;102578.47;4995375;28;45452;-40
2024/01/20 01:28:34;;;;;;;;;15.00;14.00;;;;;1.23;67.76;102575.94;4994739;28;48644;-40
2024/01/20 01:30:59;;;;;;;;;28.50;21.00;;;;;1.20;68.38;102576.88;4994795;28;45474;-41
2024/01/20 01:33:24;;;;;;;;;17.00;12.75;;;;;1.12;68.45;102572.75;4994974;28;45388;-40
2024/01/20 01:35:50;;;;;;;;;22.00;17.50;;;;;1.16;68.14;102579.63;4995078;28;45145;-40
2024/01/20 01:38:15;;;;;;;;;22.50;12.00;;;;;1.15;68.24;102584.00;4994778;28;45532;-40
2024/01/20 01:40:40;;;;;;;;;18.25;12.75;;;;;1.12;67.82;102580.59;4994639;28;45351;-41
2024/01/20 01:43:06;;;;;;;;;24.50;15.25;;;;;1.02;67.92;102577.38;4994782;28;45373;-41
2024/01/20 01:45:32;;;;;;;;;6.25;0.75;;;;;1.09;67.71;102597.25;4995145;28;45260;-39
2024/01/20 01:47:58;;;;;;;;;16.50;15.00;;;;;1.08;68.44;102587.69;4994531;28;46417;-40
2024/01/20 01:50:24;;;;;;;;;31.50;17.00;;;;;1.07;67.66;102591.22;4994221;28;45393;-41
2024/01/20 01:52:50;;;;;;;;;23.75;13.00;;;;;1.05;67.77;102587.75;4994792;28;45367;-40
2024/01/20 01:55:16;;;;;;;;;29.25;21.50;;;;;1.05;68.36;102598.25;4994230;28;45209;-40
2024/01/20 01:57:42;;;;;;;;;32.25;20.00;;;;;1.05;68.71;102608.72;4994617;28;45920;-39
2024/01/20 02:00:09;;;;;;;;;21.50;18.00;;;;;0.86;68.81;102597.00;4994497;28;45515;-39
2024/01/20 02:02:34;;;;;;;;;25.25;22.00;;;;;0.94;68.24;102605.53;4994531;28;45298;-41
2024/01/20 02:04:59;;;;;;;;;32.50;21.25;;;;;0.93;68.64;102604.69;4994773;28;45305;-39
2024/01/20 02:07:25;;;;;;;;;17.50;15.25;;;;;0.92;68.42;102609.94;4994346;28;46184;-41
2024/01/20 02:09:50;;;;;;;;;21.25;16.50;;;;;0.91;68.99;102614.31;4994361;28;45399;-40
2024/01/20 02:12:17;;;;;;;;;22.50;16.00;;;;;0.97;68.57;102615.94;5009519;28;45648;-40
2024/01/20 02:14:43;;;;;;;;;24.00;17.50;;;;;0.91;68.20;102603.00;4994497;28;45449;-40
2024/01/20 02:17:08;;;;;;;;;26.75;23.00;;;;;1.01;68.78;102609.69;4994242;28;46228;-40
2024/01/20 02:19:38;;;;;;;;;28.75;18.25;;;;;0.95;68.06;102592.38;4994254;28;45583;-41
2024/01/20 02:22:16;;;;;;;;;26.00;24.00;;;;;1.05;68.22;102605.25;4994410;28;45311;-41
2024/01/20 02:24:47;;;;;;;;;28.25;20.00;;;;;1.06;68.40;102605.22;4994547;28;45345;-40
2024/01/20 02:27:13;;;;;;;;;14.50;13.00;;;;;1.03;67.98;102594.81;4994068;28;47249;-40
2024/01/20 02:29:39;;;;;;;;;21.75;17.50;;;;;1.08;68.43;102607.78;4994252;28;45246;-41
2024/01/20 02:32:05;;;;;;;;;19.50;17.00;;;;;1.06;68.46;102604.38;4994198;28;45576;-42
2024/01/20 02:34:31;;;;;;;;;23.50;16.00;;;;;1.10;68.56;102609.50;4994584;28;45374;-41
2024/01/20 02:36:56;;;;;;;;;22.25;18.25;;;;;1.10;67.74;102611.25;4993888;28;46823;-41
2024/01/20 02:39:21;;;;;;;;;17.00;15.00;;;;;1.04;68.08;102601.78;4993775;28;45337;-41
2024/01/20 02:41:47;;;;;;;;;24.25;20.50;;;;;1.15;67.78;102620.72;4994095;28;45341;-41
2024/01/20 02:44:13;;;;;;;;;29.50;17.00;;;;;1.15;68.32;102618.09;4994263;28;45452;-39
2024/01/20 02:46:38;;;;;;;;;23.50;19.50;;;;;1.08;68.56;102613.03;4993995;28;46090;-41
2024/01/20 02:49:03;;;;;;;;;42.25;22.50;;;;;1.10;68.16;102617.34;4993713;28;45367;-38
2024/01/20 02:51:29;;;;;;;;;18.75;16.25;;;;;0.99;67.94;102603.66;4994072;28;45352;-40
2024/01/20 02:53:55;;;;;;;;;25.00;18.00;;;;;1.02;68.06;102614.06;4994037;28;45480;-40
2024/01/20 02:56:22;;;;;;;;;20.75;12.50;;;;;1.08;67.83;102616.50;4993741;28;46518;-40
2024/01/20 02:58:48;;;;;;;;;26.00;17.75;;;;;1.02;68.15;102619.31;4993805;28;45396;-40
2024/01/20 03:01:14;;;;;;;;;20.00;16.25;;;;;0.99;67.80;102622.00;4993908;28;45421;-40
2024/01/20 03:03:39;;;;;;;;;31.00;22.50;;;;;0.87;67.51;102615.31;4994500;28;45355;-41
2024/01/20 03:06:05;;;;;;;;;24.00;17.25;;;;;0.83;68.35;102607.56;4992380;28;46155;-40
2024/01/20 03:08:30;;;;;;;;;32.00;18.75;;;;;0.89;67.91;102615.28;4992332;28;45309;-42
2024/01/20 03:10:55;;;;;;;;;21.75;12.00;;;;;0.95;67.74;102617.75;4993598;28;45498;-41
2024/01/20 03:13:21;;;;;;;;;35.50;27.75;;;;;0.83;68.25;102603.19;4994075;28;45353;-40
2024/01/20 03:15:46;;;;;;;;;30.50;22.50;;;;;0.88;68.02;102613.53;4993965;28;46059;-41
2024/01/20 03:18:11;;;;;;;;;20.00;15.00;;;;;0.89;68.07;102615.28;4993652;28;45322;-40
2024/01/20 03:20:37;;;;;;;;;28.00;22.00;;;;;0.91;68.17;102614.31;4993995;28;45353;-40
2024/01/20 03:23:02;;;;;;;;;36.50;25.50;;;;;0.92;68.23;102612.56;4993898;28;45420;-40
2024/01/20 03:25:28;;;;;;;;;21.50;19.00;;;;;0.91;67.55;102613.47;4993371;28;45419;-41
2024/01/20 03:27:53;;;;;;;;;24.75;18.25;;;;;0.89;67.99;102613.53;4993254;28;45510;-39
2024/01/20 03:30:19;;;;;;;;;20.00;15.50;;;;;0.86;67.98;102617.97;4993230;28;45405;-40
2024/01/20 03:32:44;;;;;;;;;16.50;15.00;;;;;0.79;67.74;102614.63;4993771;28;45370;-40
2024/01/20 03:35:09;;;;;;;;;21.50;15.00;;;;;0.79;67.48;102626.88;4993169;28;46451;-39
2024/01/20 03:37:35;;;;;;;;;27.00;15.25;;;;;0.61;67.33;102610.72;4993283;28;45367;-40
2024/01/20 03:40:00;;;;;;;;;18.25;13.50;;;;;0.65;67.34;102611.50;4993213;28;45322;-40
2024/01/20 03:42:28;;;;;;;;;18.25;14.00;;;;;0.70;66.97;102633.19;4993085;28;45327;-40
2024/01/20 03:44:53;;;;;;;;;25.00;22.50;;;;;0.62;67.75;102619.44;4992832;28;45658;-39
2024/01/20 03:47:19;;;;;;;;;14.50;11.00;;;;;0.64;67.28;102626.34;4992939;28;45481;-40
2024/01/20 03:49:44;;;;;;;;;22.00;14.50;;;;;0.65;66.98;102624.59;4992759;28;45417;-39
2024/01/20 03:52:09;;;;;;;;;21.25;18.75;;;;;0.55;67.86;102610.88;5078249;27;45386;-40
2024/01/20 03:54:35;;;;;;;;;22.50;16.00;;;;;0.57;67.74;102616.06;4992743;28;46083;-40
2024/01/20 03:57:00;;;;;;;;;23.25;18.25;;;;;0.55;68.01;102618.72;4992755;28;45339;-41
2024/01/20 03:59:25;;;;;;;;;21.75;15.75;;;;;0.55;68.41;102623.97;4992763;28;45350;-41
2024/01/20 04:01:51;;;;;;;;;21.00;19.00;;;;;0.53;68.00;102617.03;4993363;28;45411;-40
2024/01/20 04:04:16;;;;;;;;;15.00;9.00;;;;;0.45;67.83;102611.97;5077986;27;47541;-40
2024/01/20 04:06:41;;;;;;;;;19.00;15.50;;;;;0.50;67.74;102604.84;4992779;28;45441;-41
2024/01/20 04:09:07;;;;;;;;;25.75;20.75;;;;;0.61;68.03;102615.94;4994048;28;45794;-40
2024/01/20 04:11:32;;;;;;;;;25.50;14.00;;;;;0.64;67.95;102628.13;4992798;28;45173;-40
2024/01/20 04:13:57;;;;;;;;;14.75;12.75;;;;;0.58;67.81;102625.63;4992768;28;46102;-40
2024/01/20 04:16:23;;;;;;;;;19.25;14.00;;;;;0.56;68.17;102625.69;4992676;28;45399;-40
2024/01/20 04:18:48;;;;;;;;;19.00;15.25;;;;;0.50;68.28;102628.41;4995253;28;45359;-40
2024/01/20 04:21:13;;;;;;;;;21.25;19.00;;;;;0.46;68.74;102624.16;4996009;28;45538;-40
2024/01/20 04:23:39;;;;;;;;;25.00;18.50;;;;;0.48;68.41;102630.22;4995846;28;46464;-39
2024/01/20 04:26:04;;;;;;;;;21.75;13.50;;;;;0.37;68.02;102612.13;4995683;28;45376;-40
2024/01/20 04:28:30;;;;;;;;;24.25;18.25;;;;;0.44;69.12;102625.97;4995987;28;45334;-38
2024/01/20 04:30:55;;;;;;;;;19.25;14.50;;;;;0.43;69.15;102626.88;4995816;28;45391;-39
2024/01/20 04:33:20;;;;;;;;;23.75;16.25;;;;;0.47;68.55;102637.22;4995807;28;45349;-40
2024/01/20 04:35:46;;;;;;;;;23.00;21.00;;;;;0.43;69.19;102624.25;4995643;28;45395;-40
2024/01/20 04:38:11;;;;;;;;;28.00;20.25;;;;;0.30;68.77;102610.59;4995851;28;45414;-40
2024/01/20 04:40:36;;;;;;;;;31.75;24.00;;;;;0.38;69.11;102624.34;4995985;28;45329;-39
2024/01/20 04:43:02;;;;;;;;;19.75;19.00;;;;;0.39;68.67;102633.06;4995447;28;45354;-41
2024/01/20 04:45:28;;;;;;;;;23.25;18.75;;;;;0.38;68.76;102634.81;5010609;28;45287;-39
2024/01/20 04:47:53;;;;;;;;;23.50;16.00;;;;;0.35;69.39;102632.28;4995419;28;45282;-40
2024/01/20 04:50:18;;;;;;;;;18.25;15.25;;;;;0.34;68.91;102634.91;4995509;28;45267;-40
2024/01/20 04:52:44;;;;;;;;;27.75;20.50;;;;;0.21;68.33;102616.00;4995094;28;46049;-41
2024/01/20 04:55:09;;;;;;;;;18.00;17.00;;;;;0.24;68.73;102623.78;4995233;28;45245;-49
2024/01/20 04:57:35;;;;;;;;;34.00;19.00;;;;;0.23;69.20;102638.63;4995332;28;45232;-40
2024/01/20 05:00:00;;;;;;;;;24.75;18.00;;;;;0.20;69.22;102633.47;4995355;28;45403;-40
2024/01/20 05:02:25;;;;;;;;;21.25;13.25;;;;;0.21;68.72;102643.06;4995225;28;45616;-41
2024/01/20 05:04:51;;;;;;;;;16.50;15.00;;;;;0.19;69.76;102646.59;4994929;28;45358;-39
2024/01/20 05:07:16;;;;;;;;;18.50;15.25;;;;;0.20;69.83;102653.53;4995115;28;45413;-40
2024/01/20 05:09:41;;;;;;;;;18.50;10.00;;;;;0.15;69.95;102642.31;4995412;28;45363;-41
2024/01/20 05:12:07;;;;;;;;;24.00;18.75;;;;;0.20;69.89;102649.16;4994609;28;46106;-40
2024/01/20 05:14:32;;;;;;;;;14.00;12.25;;;;;0.26;69.56;102649.94;4995032;28;45276;-41
2024/01/20 05:16:58;;;;;;;;;25.25;16.00;;;;;0.21;69.83;102632.59;4994916;28;45736;-40
2024/01/20 05:19:23;;;;;;;;;22.50;15.50;;;;;0.26;69.99;102642.09;4995157;28;45378;-40
2024/01/20 05:21:48;;;;;;;;;22.50;18.00;;;;;0.33;70.00;102646.28;4994765;28;46303;-40
2024/01/20 05:24:14;;;;;;;;;34.25;21.00;;;;;0.22;68.83;102651.78;4994775;28;45368;-41
2024/01/20 05:26:39;;;;;;;;;22.25;14.50;;;;;0.14;69.69;102651.94;4994985;28;45307;-40
2024/01/20 05:29:05;;;;;;;;;24.00;18.75;;;;;0.08;69.76;102649.41;4994132;28;45271;-39
2024/01/20 05:31:31;;;;;;;;;27.00;19.75;;;;;0.11;70.46;102653.75;4994655;28;46237;-40
2024/01/20 05:33:59;;;;;;;;;26.50;21.00;;;;;0.10;69.65;102665.13;4994720;28;45468;-41
2024/01/20 05:36:24;;;;;;;;;29.00;23.75;;;;;0.10;70.24;102652.88;4994787;28;45312;-40
2024/01/20 05:38:50;;;;;;;;;33.00;18.25;;;;;0.13;70.13;102650.22;4994953;28;45315;-41
2024/01/20 05:41:15;;;;;;;;;18.50;14.50;;;;;0.13;69.17;102654.59;4994593;28;45584;-40
2024/01/20 05:43:40;;;;;;;;;27.25;15.00;;;;;0.06;69.99;102650.38;4994664;28;45310;-40
2024/01/20 05:46:06;;;;;;;;;22.00;14.25;;;;;0.02;69.87;102646.94;4993738;28;45248;-41
2024/01/20 05:48:33;;;;;;;;;12.25;11.00;;;;;0.05;69.56;102644.28;4994741;28;45347;-42
2024/01/20 05:50:59;;;;;;;;;17.25;13.00;;;;;0.06;69.15;102639.91;4994302;28;47147;-41
2024/01/20 05:53:24;;;;;;;;;23.00;15.00;;;;;0.04;69.78;102636.44;4994467;28;45499;-40
2024/01/20 05:55:49;;;;;;;;;20.00;15.25;;;;;0.02;69.89;102639.09;4994822;28;45412;-41
2024/01/20 05:58:15;;;;;;;;;23.50;18.75;;;;;-0.07;69.96;102644.53;4994769;28;45509;-40
2024/01/20 06:00:40;;;;;;;;;25.50;16.00;;;;;-0.01;69.48;102660.09;4994488;28;45618;-41
2024/01/20 06:03:06;;;;;;;;;19.00;17.50;;;;;-0.06;70.10;102651.47;4994621;28;45420;-39
2024/01/20 06:05:31;;;;;;;;;19.00;17.00;;;;;-0.05;70.49;102663.66;4994543;28;45348;-40
2024/01/20 06:07:57;;;;;;;;;11.00;11.00;;;;;-0.11;70.34;102655.94;5080059;27;45304;-39
2024/01/20 06:10:22;;;;;;;;;17.75;12.50;;;;;-0.10;69.39;102668.13;4995427;28;45389;-40
2024/01/20 06:12:48;;;;;;;;;20.50;16.25;;;;;-0.13;70.03;102660.34;4994179;28;45298;-41
2024/01/20 06:15:13;;;;;;;;;22.25;14.75;;;;;-0.09;69.83;102662.00;4994457;28;45249;-40
2024/01/20 06:17:38;;;;;;;;;27.50;16.25;;;;;-0.14;69.84;102658.63;4994877;28;45274;-40
2024/01/20 06:20:05;;;;;;;;;25.25;21.75;;;;;-0.15;69.52;102654.28;4994325;28;45347;-45
2024/01/20 06:22:31;;;;;;;;;18.75;13.50;;;;;-0.14;69.75;102653.38;4994313;28;45495;-40
2024/01/20 06:24:56;;;;;;;;;20.75;18.00;;;;;-0.13;70.66;102661.19;4994383;28;45364;-41
2024/01/20 06:27:22;;;;;;;;;27.50;19.00;;;;;-0.19;70.36;102650.00;4994560;28;45382;-41
2024/01/20 06:29:48;;;;;;;;;31.75;20.50;;;;;-0.26;70.66;102644.88;4994095;28;45334;-40
2024/01/20 06:32:13;;;;;;;;;21.75;19.50;;;;;-0.16;70.00;102665.66;4994051;28;45471;-40
2024/01/20 06:34:39;;;;;;;;;19.50;17.00;;;;;-0.17;70.36;102663.91;4994224;28;45362;-39
2024/01/20 06:37:04;;;;;;;;;16.50;15.25;;;;;-0.19;71.34;102661.34;4995685;28;45536;-39
2024/01/20 06:39:30;;;;;;;;;20.00;15.00;;;;;-0.17;70.16;102664.81;4994160;28;45393;-39
2024/01/20 06:41:55;;;;;;;;;24.75;20.00;;;;;-0.20;71.27;102672.69;4993643;28;45570;-40
2024/01/20 06:44:22;;;;;;;;;26.75;22.50;;;;;-0.20;70.60;102679.69;4994015;28;45392;-40
2024/01/20 06:46:48;;;;;;;;;24.25;20.50;;;;;-0.24;70.41;102665.81;4994370;28;45321;-40
2024/01/20 06:49:13;;;;;;;;;21.25;16.50;;;;;-0.21;71.13;102680.56;5008791;28;45420;-40
2024/01/20 06:51:39;;;;;;;;;19.75;12.25;;;;;-0.36;71.71;102666.91;4993898;28;45315;-40
2024/01/20 06:54:07;;;;;;;;;31.00;22.50;;;;;-0.35;71.24;102673.84;4994064;28;45148;-39
2024/01/20 06:56:32;;;;;;;;;25.25;17.50;;;;;-0.33;71.51;102687.75;4993966;28;45419;-40
2024/01/20 06:58:58;;;;;;;;;28.00;23.50;;;;;-0.33;71.41;102679.91;4993525;28;51286;-38
2024/01/20 07:01:23;;;;;;;;;25.25;21.25;;;;;-0.33;71.12;102698.22;4993747;28;45148;-39
2024/01/20 07:03:48;;;;;;;;;15.50;9.75;;;;;-0.38;71.65;102691.34;4994190;28;45643;-40
2024/01/20 07:06:14;;;;;;;;;20.00;14.75;;;;;-0.32;71.04;102710.41;4994096;28;45410;-41
2024/01/20 07:08:39;;;;;;;;;28.25;20.00;;;;;-0.42;71.09;102697.50;4993890;28;45506;-41
2024/01/20 07:11:11;;;;;;;;;20.50;18.50;;;;;-0.39;71.15;102700.94;4993643;28;45417;-39
2024/01/20 07:13:37;;;;;;;;;14.00;10.00;;;;;-0.46;70.60;102690.63;5078708;27;45382;-41
2024/01/20 07:16:13;;;;;;;;;26.50;18.25;;;;;-0.36;71.61;102720.94;4993792;28;45430;-39
2024/01/20 07:18:39;;;;;;;;;25.00;18.25;;;;;-0.32;71.51;102717.38;4993614;28;46585;-39
2024/01/20 07:21:05;;;;;;;;;25.50;18.00;;;;;-0.30;71.30;102715.59;5008559;28;46179;-40
2024/01/20 07:23:31;;;;;;;;;25.50;12.50;;;;;-0.29;72.13;102710.34;4993530;28;45448;-40
2024/01/20 07:25:58;;;;;;;;;20.00;17.50;;;;;-0.26;71.86;102712.03;4993620;28;45408;-40
2024/01/20 07:28:24;;;;;;;;;28.00;18.75;;;;;-0.28;71.63;102714.69;4992994;28;47352;-40
2024/01/20 07:30:49;;;;;;;;;21.75;16.50;;;;;-0.23;71.08;102717.22;4992995;28;45348;-40
2024/01/20 07:33:14;;;;;;;;;24.00;20.75;;;;;-0.25;71.48;102713.78;4993365;28;45383;-41
2024/01/20 07:35:40;;;;;;;;;27.00;17.00;;;;;-0.22;70.94;102712.84;4993756;28;45853;-40
2024/01/20 07:38:05;;;;;;;;;25.50;18.25;;;;;-0.30;70.75;102700.75;4992983;28;46625;-40
2024/01/20 07:40:30;;;;;;;;;23.25;15.75;;;;;-0.22;71.52;102712.84;4993062;28;45418;-41
2024/01/20 07:42:56;;;;;;;;;27.75;17.00;;;;;-0.24;71.02;102710.25;4993084;28;45531;-41
2024/01/20 07:45:22;;;;;;;;;22.00;15.50;;;;;-0.33;70.83;102694.75;4993272;28;45219;-41
2024/01/20 07:47:47;;;;;;;;;22.00;18.75;;;;;-0.18;71.24;102714.50;4992752;28;46496;-40
2024/01/20 07:50:13;;;;;;;;;23.75;19.25;;;;;-0.16;71.61;102720.59;4992796;28;45400;-41
2024/01/20 07:52:38;;;;;;;;;27.25;18.75;;;;;-0.16;70.59;102718.81;4994091;28;45389;-40
2024/01/20 07:55:04;;;;;;;;;23.50;17.50;;;;;-0.15;71.00;102720.53;4996198;28;45288;-41
2024/01/20 07:57:30;;;;;;;;;27.75;22.75;;;;;-0.19;71.03;102712.78;4995739;28;46007;-41
2024/01/20 07:59:55;;;;;;;;;24.00;15.75;;;;;-0.14;70.72;102722.25;4995714;28;45416;-39
2024/01/20 08:02:21;;;;;;;;;23.00;18.25;;;;;-0.14;70.15;102724.03;4996161;28;45308;-39
2024/01/20 08:04:46;;;;;;;;;30.50;20.50;;;;;-0.15;70.64;102720.53;4996288;28;45378;-40
2024/01/20 08:07:11;;;;;;;;;21.50;15.75;;;;;-0.14;70.53;102729.25;4995894;28;45390;-39
2024/01/20 08:09:37;;;;;;;;;32.00;21.00;;;;;-0.09;71.36;102725.66;4995951;28;45377;-41
2024/01/20 08:12:02;;;;;;;;;23.50;19.00;;;;;-0.02;71.10;102734.25;4995924;28;45511;-39
2024/01/20 08:14:28;;;;;;;;;16.00;16.00;;;;;0.00;71.21;102735.09;4995986;28;45464;-40
2024/01/20 08:16:53;;;;;;;;;26.50;24.50;;;;;0.02;70.84;102741.16;4995711;28;45514;-39
2024/01/20 08:19:19;;;;;;;;;25.00;19.25;;;;;0.03;71.52;102734.16;4994713;28;45367;-40
2024/01/20 08:21:44;;;;;;;;;27.25;23.50;;;;;0.11;70.96;102732.25;4995994;28;45638;-40
2024/01/20 08:24:10;;;;;;;;;28.00;17.00;;;;;0.08;70.46;102733.16;4996213;28;45321;-40
2024/01/20 08:26:35;;;;;;;;;20.50;13.50;;;;;0.12;70.17;102737.44;4995480;28;47067;-39
2024/01/20 08:29:01;;;;;;;;;26.50;21.75;;;;;0.17;70.47;102738.25;4995391;28;45386;-39
2024/01/20 08:31:27;;;;;;;;;20.50;20.50;;;;;0.18;70.31;102734.72;4995683;28;45416;-41
2024/01/20 08:33:53;;;;;;;;;33.25;22.75;;;;;0.29;70.50;102741.47;4994645;28;45358;-39
2024/01/20 08:36:18;;;;;;;;;26.75;24.75;;;;;0.35;70.43;102742.22;4995568;28;45452;-39
2024/01/20 08:38:44;;;;;;;;;25.00;22.50;;;;;0.40;70.44;102744.75;4995413;28;46359;-40
2024/01/20 08:41:10;;;;;;;;;24.75;15.75;;;;;0.48;70.31;102743.69;4995787;28;45296;-40
2024/01/20 08:43:43;;;;;;;;;24.00;19.25;;;;;0.57;69.94;102744.38;4995747;28;45449;-40
2024/01/20 08:46:08;;;;;;;;;29.25;23.50;;;;;0.64;70.40;102735.50;4995306;28;46255;-39
2024/01/20 08:48:34;;;;;;;;;30.50;22.50;;;;;0.30;69.94;102670.78;4995255;28;45536;-40
2024/01/20 08:51:00;;;;;;;;;26.75;19.00;;;;;0.73;69.99;102730.91;4995364;28;45587;-38
2024/01/20 08:53:27;;;;;;;;;28.00;23.25;;;;;0.81;70.22;102737.75;4995293;28;45337;-40
2024/01/20 08:55:52;;;;;;;;;26.50;21.50;;;;;0.86;69.52;102736.72;4995244;28;45609;-39
2024/01/20 08:58:18;;;;;;;;;26.00;20.50;;;;;0.92;69.34;102733.09;4994935;28;45339;-39
2024/01/20 09:00:43;;;;;;;;;32.25;16.50;;;;;0.96;69.23;102740.00;4995193;28;45417;-39
2024/01/20 09:03:08;;;;;;;;;29.75;18.50;;;;;1.03;69.30;102746.81;4995463;28;45407;-39
2024/01/20 09:05:34;;;;;;;;;28.75;24.00;;;;;1.05;68.77;102733.66;5008573;27;47157;-40
2024/01/20 09:07:59;;;;;;;;;32.25;19.50;;;;;1.11;69.00;102741.41;5072924;27;45443;-40
2024/01/20 09:10:24;;;;;;;;;21.00;18.25;;;;;1.09;68.73;102735.31;5098632;27;45454;-38
2024/01/20 09:12:50;;;;;;;;;19.50;19.50;;;;;1.14;68.56;102738.72;5098940;27;45295;-38
2024/01/20 09:15:15;;;;;;;;;31.50;24.50;;;;;1.05;68.42;102731.91;5098342;27;45634;-39
2024/01/20 09:17:41;;;;;;;;;24.75;21.75;;;;;1.10;68.02;102734.44;5098736;27;45725;-38
2024/01/20 09:20:07;;;;;;;;;44.75;25.00;;;;;1.08;68.52;102728.34;5098795;27;45408;-39
2024/01/20 09:22:33;;;;;;;;;26.00;22.25;;;;;1.17;68.05;102733.38;5098987;27;45469;-41
2024/01/20 09:24:58;;;;;;;;;32.00;22.75;;;;;1.14;68.19;102718.59;5098438;27;47137;-41
2024/01/20 09:27:24;;;;;;;;;24.00;19.00;;;;;1.22;67.94;102727.13;5098687;27;45391;-39
2024/01/20 09:29:50;;;;;;;;;31.75;23.50;;;;;1.27;67.64;102723.53;5098631;27;45385;-39
2024/01/20 09:32:15;;;;;;;;;25.25;22.25;;;;;1.54;67.94;102714.09;5098720;27;45472;-39
2024/01/20 09:34:41;;;;;;;;;23.00;18.25;;;;;2.83;66.46;102708.63;5098384;27;47361;-39
2024/01/20 09:37:07;;;;;;;;;27.00;22.50;;;;;4.21;62.24;102710.84;5098110;27;45411;-40
2024/01/20 09:39:32;;;;;;;;;27.00;18.25;;;;;5.22;61.36;102706.81;5098211;27;45379;-40
2024/01/20 09:41:58;;;;;;;;;33.75;25.25;;;;;6.10;57.86;102693.31;5098236;27;45362;-40
2024/01/20 09:44:24;;;;;;;;;29.50;21.50;;;;;6.64;58.71;102683.72;5097903;27;46124;-40
2024/01/20 09:46:50;;;;;;;;;30.00;22.50;;;;;7.52;56.80;102690.81;5098091;27;45294;-41
2024/01/20 09:49:15;;;;;;;;;16.25;16.25;;;;;8.28;52.76;102699.16;5097934;27;45365;-39
2024/01/20 09:51:49;;;;;;;;;27.75;24.25;;;;;8.87;51.53;102694.13;5098791;27;45319;-41
2024/01/20 09:54:16;;;;;;;;;32.75;24.25;;;;;9.72;49.81;102696.16;5097900;27;46279;-38
2024/01/20 09:56:42;;;;;;;;;29.25;23.75;;;;;10.52;50.04;102684.06;5097881;27;45373;-40
2024/01/20 09:59:09;;;;;;;;;36.50;27.50;;;;;10.94;48.14;102695.53;5097836;27;45695;-40
2024/01/20 10:01:37;;;;;;;;;29.00;24.50;;;;;11.28;46.99;102690.63;5098077;27;45294;-39
2024/01/20 10:04:05;;;;;;;;;28.75;23.00;;;;;11.78;45.92;102684.47;5097701;27;46094;-40
2024/01/20 10:06:31;;;;;;;;;27.75;22.00;;;;;12.24;43.11;102675.91;5113673;27;45369;-40
2024/01/20 10:08:56;;;;;;;;;29.75;26.25;;;;;12.69;43.42;102679.72;5097742;27;45185;-40
2024/01/20 10:11:21;;;;;;;;;25.50;22.25;;;;;12.95;40.42;102658.25;5097915;27;45208;-40
2024/01/20 10:13:47;;;;;;;;;22.33;20.67;;;;;13.15;40.46;102656.75;5097282;27;46405;-40
2024/01/20 10:16:12;;;;;;;;;23.00;20.67;;;;;13.77;39.72;102666.22;5097078;27;45338;-40
2024/01/20 10:18:38;;;;;;;;;24.00;20.00;;;;;13.90;42.36;102683.00;5097838;27;45327;-40
2024/01/20 10:21:05;;;;;;;;;31.00;25.00;;;;;13.73;38.01;102677.16;5097562;27;45315;-40
2024/01/20 10:23:34;;;;;;;;;25.67;25.00;;;;;13.82;39.91;102672.06;5097533;27;46031;-40
2024/01/20 10:26:02;;;;;;;;;24.67;21.00;;;;;13.91;39.85;102669.53;5096924;27;45872;-40
2024/01/20 10:28:28;;;;;;;;;26.33;21.67;;;;;14.08;37.45;102657.47;5097092;27;45412;-39
2024/01/20 10:30:54;;;;;;;;;32.00;22.00;;;;;14.52;37.60;102660.22;5097384;27;45470;-40
2024/01/20 10:33:19;;;;;;;;;26.00;23.33;;;;;14.61;35.92;102668.34;5097284;27;46212;-38
2024/01/20 10:35:44;;;;;;;;;27.67;23.67;;;;;14.57;36.83;102669.59;5097202;27;45360;-39
2024/01/20 10:38:14;;;;;;;;;28.33;24.33;;;;;14.17;36.55;102675.47;5097479;27;45380;-40
2024/01/20 10:40:41;;;;;;;;;28.33;23.00;;;;;13.47;36.21;102652.44;5097435;27;45482;-40
2024/01/20 10:43:12;;;;;;;;;34.33;25.33;;;;;12.65;38.60;102672.06;5096414;27;45274;-39
2024/01/20 10:45:44;;;;;;;;;19.00;17.33;;;;;12.87;38.55;102682.84;5096845;27;45380;-39
2024/01/20 10:48:18;;;;;;;;;31.00;24.33;;;;;12.29;37.99;102672.91;5097187;27;45437;-39
2024/01/20 10:50:53;;;;;;;;;28.33;21.33;;;;;11.22;38.95;102679.44;5096879;27;45380;-40
2024/01/20 10:53:19;;;;;;;;;35.33;23.33;;;;;10.84;41.91;102674.00;5096757;27;46228;-39
2024/01/20 10:55:46;;;;;;;;;35.00;25.33;;;;;11.27;41.37;102673.78;5096675;27;45343;-39
2024/01/20 10:58:15;;;;;;;;;24.67;20.33;;;;;12.22;40.49;102675.19;5097225;27;45365;-39
2024/01/20 11:00:41;;;;;;;;;35.00;28.25;;;;;12.80;39.19;102662.03;5096961;27;45280;-38
2024/01/20 11:03:08;;;;;;;;;35.00;28.00;;;;;13.28;39.21;102659.34;5096616;27;47163;-39
2024/01/20 11:05:33;;;;;;;;;30.33;24.00;;;;;13.82;38.97;102666.72;5096582;27;45310;-39
2024/01/20 11:08:07;;;;;;;;;33.75;29.75;;;;;13.47;36.28;102665.81;5096810;27;45421;-39